sensor_id;sensor_type;location;lat;lon;timestamp;temperature;humidity
65396;HTU21D;52004;45.136;39.010;2023-02-04T00:00:53;3.62;73.48
65396;HTU21D;52004;45.136;39.010;2023-02-04T00:03:19;3.64;73.47
65396;HTU21D;52004;45.136;39.010;2023-02-04T00:05:45;3.67;73.40
65396;HTU21D;52004;45.136;39.010;2023-02-04T00:08:10;3.70;73.34
65396;HTU21D;52004;45.136;39.010;2023-02-04T00:10:36;3.70;73.30
65396;HTU21D;52004;45.136;39.010;2023-02-04T00:13:03;3.69;73.32
65396;HTU21D;52004;45.136;39.010;2023-02-04T00:15:29;3.68;73.31
65396;HTU21D;52004;45.136;39.010;2023-02-04T00:17:55;3.67;73.41
65396;HTU21D;52004;45.136;39.010;2023-02-04T00:20:21;3.67;73.41
65396;HTU21D;52004;45.136;39.010;2023-02-04T00:22:47;3.70;73.37
65396;HTU21D;52004;45.136;39.010;2023-02-04T00:25:13;3.70;73.31
65396;HTU21D;52004;45.136;39.010;2023-02-04T00:27:39;3.70;73.36
65396;HTU21D;52004;45.136;39.010;2023-02-04T00:30:05;3.69;73.33
65396;HTU21D;52004;45.136;39.010;2023-02-04T00:32:33;3.68;73.31
65396;HTU21D;52004;45.136;39.010;2023-02-04T00:34:59;3.68;73.35
65396;HTU21D;52004;45.136;39.010;2023-02-04T00:37:26;3.69;73.31
65396;HTU21D;52004;45.136;39.010;2023-02-04T00:39:52;3.71;73.32
65396;HTU21D;52004;45.136;39.010;2023-02-04T00:42:17;3.73;73.31
65396;HTU21D;52004;45.136;39.010;2023-02-04T00:44:43;3.75;73.29
65396;HTU21D;52004;45.136;39.010;2023-02-04T00:47:09;3.76;73.25
65396;HTU21D;52004;45.136;39.010;2023-02-04T00:49:35;3.79;73.25
65396;HTU21D;52004;45.136;39.010;2023-02-04T00:52:01;3.84;73.22
65396;HTU21D;52004;45.136;39.010;2023-02-04T00:54:27;3.86;73.17
65396;HTU21D;52004;45.136;39.010;2023-02-04T00:56:53;3.86;73.16
65396;HTU21D;52004;45.136;39.010;2023-02-04T00:59:19;3.87;73.16
65396;HTU21D;52004;45.136;39.010;2023-02-04T01:01:44;3.89;73.12
65396;HTU21D;52004;45.136;39.010;2023-02-04T01:04:13;3.89;73.10
65396;HTU21D;52004;45.136;39.010;2023-02-04T01:06:39;3.89;73.14
65396;HTU21D;52004;45.136;39.010;2023-02-04T01:09:05;3.87;73.12
65396;HTU21D;52004;45.136;39.010;2023-02-04T01:11:31;3.88;73.12
65396;HTU21D;52004;45.136;39.010;2023-02-04T01:13:58;3.86;73.07
65396;HTU21D;52004;45.136;39.010;2023-02-04T01:16:24;3.85;73.09
65396;HTU21D;52004;45.136;39.010;2023-02-04T01:18:50;3.84;73.12
65396;HTU21D;52004;45.136;39.010;2023-02-04T01:21:16;3.83;73.08
65396;HTU21D;52004;45.136;39.010;2023-02-04T01:23:42;3.78;72.96
65396;HTU21D;52004;45.136;39.010;2023-02-04T01:26:08;3.73;72.87
65396;HTU21D;52004;45.136;39.010;2023-02-04T01:28:34;3.68;72.78
65396;HTU21D;52004;45.136;39.010;2023-02-04T01:30:59;3.61;72.73
65396;HTU21D;52004;45.136;39.010;2023-02-04T01:33:26;3.56;72.66
65396;HTU21D;52004;45.136;39.010;2023-02-04T01:35:52;3.48;72.67
65396;HTU21D;52004;45.136;39.010;2023-02-04T01:38:17;3.42;72.68
65396;HTU21D;52004;45.136;39.010;2023-02-04T01:40:43;3.36;72.73
65396;HTU21D;52004;45.136;39.010;2023-02-04T01:43:10;3.32;72.67
65396;HTU21D;52004;45.136;39.010;2023-02-04T01:45:36;3.27;72.64
65396;HTU21D;52004;45.136;39.010;2023-02-04T01:48:02;3.23;72.63
65396;HTU21D;52004;45.136;39.010;2023-02-04T01:50:29;3.18;72.58
65396;HTU21D;52004;45.136;39.010;2023-02-04T01:52:54;3.13;72.60
65396;HTU21D;52004;45.136;39.010;2023-02-04T01:55:23;3.08;72.63
65396;HTU21D;52004;45.136;39.010;2023-02-04T01:57:49;3.02;72.69
65396;HTU21D;52004;45.136;39.010;2023-02-04T02:00:27;3.00;72.70
65396;HTU21D;52004;45.136;39.010;2023-02-04T02:02:54;3.00;72.70
65396;HTU21D;52004;45.136;39.010;2023-02-04T02:05:22;2.98;72.72
65396;HTU21D;52004;45.136;39.010;2023-02-04T02:07:50;2.99;72.68
65396;HTU21D;52004;45.136;39.010;2023-02-04T02:10:17;2.99;72.71
65396;HTU21D;52004;45.136;39.010;2023-02-04T02:12:43;2.99;72.66
65396;HTU21D;52004;45.136;39.010;2023-02-04T02:15:10;2.98;72.64
65396;HTU21D;52004;45.136;39.010;2023-02-04T02:17:36;2.98;72.61
65396;HTU21D;52004;45.136;39.010;2023-02-04T02:20:04;2.97;72.67
65396;HTU21D;52004;45.136;39.010;2023-02-04T02:22:40;2.98;72.73
65396;HTU21D;52004;45.136;39.010;2023-02-04T02:25:10;2.98;72.78
65396;HTU21D;52004;45.136;39.010;2023-02-04T02:27:36;2.99;72.85
65396;HTU21D;52004;45.136;39.010;2023-02-04T02:30:02;3.00;72.81
65396;HTU21D;52004;45.136;39.010;2023-02-04T02:32:29;2.99;72.71
65396;HTU21D;52004;45.136;39.010;2023-02-04T02:34:55;2.97;72.63
65396;HTU21D;52004;45.136;39.010;2023-02-04T02:37:20;2.93;72.54
65396;HTU21D;52004;45.136;39.010;2023-02-04T02:39:46;2.91;72.54
65396;HTU21D;52004;45.136;39.010;2023-02-04T02:42:13;2.89;72.52
65396;HTU21D;52004;45.136;39.010;2023-02-04T02:44:40;2.88;72.51
65396;HTU21D;52004;45.136;39.010;2023-02-04T02:47:07;2.85;72.47
65396;HTU21D;52004;45.136;39.010;2023-02-04T02:49:37;2.85;72.46
65396;HTU21D;52004;45.136;39.010;2023-02-04T02:52:10;2.82;72.45
65396;HTU21D;52004;45.136;39.010;2023-02-04T02:54:36;2.78;72.40
65396;HTU21D;52004;45.136;39.010;2023-02-04T02:57:09;2.73;72.41
65396;HTU21D;52004;45.136;39.010;2023-02-04T02:59:36;2.67;72.41
65396;HTU21D;52004;45.136;39.010;2023-02-04T03:02:02;2.66;72.42
65396;HTU21D;52004;45.136;39.010;2023-02-04T03:04:32;2.60;72.41
65396;HTU21D;52004;45.136;39.010;2023-02-04T03:06:59;2.56;72.40
65396;HTU21D;52004;45.136;39.010;2023-02-04T03:09:25;2.54;72.39
65396;HTU21D;52004;45.136;39.010;2023-02-04T03:11:52;2.51;72.42
65396;HTU21D;52004;45.136;39.010;2023-02-04T03:14:18;2.49;72.43
65396;HTU21D;52004;45.136;39.010;2023-02-04T03:16:44;2.45;72.40
65396;HTU21D;52004;45.136;39.010;2023-02-04T03:19:11;2.40;72.42
65396;HTU21D;52004;45.136;39.010;2023-02-04T03:21:37;2.38;72.41
65396;HTU21D;52004;45.136;39.010;2023-02-04T03:24:03;2.35;72.40
65396;HTU21D;52004;45.136;39.010;2023-02-04T03:26:29;2.32;72.40
65396;HTU21D;52004;45.136;39.010;2023-02-04T03:28:55;2.28;72.38
65396;HTU21D;52004;45.136;39.010;2023-02-04T03:31:23;2.27;72.37
65396;HTU21D;52004;45.136;39.010;2023-02-04T03:33:49;2.23;72.38
65396;HTU21D;52004;45.136;39.010;2023-02-04T03:36:15;2.21;72.37
65396;HTU21D;52004;45.136;39.010;2023-02-04T03:38:41;2.17;72.38
65396;HTU21D;52004;45.136;39.010;2023-02-04T03:41:07;2.13;72.38
65396;HTU21D;52004;45.136;39.010;2023-02-04T03:43:33;2.07;72.43
65396;HTU21D;52004;45.136;39.010;2023-02-04T03:45:59;2.02;72.50
65396;HTU21D;52004;45.136;39.010;2023-02-04T03:48:25;1.96;72.58
65396;HTU21D;52004;45.136;39.010;2023-02-04T03:50:50;1.92;72.66
65396;HTU21D;52004;45.136;39.010;2023-02-04T03:53:16;1.87;72.69
65396;HTU21D;52004;45.136;39.010;2023-02-04T03:55:42;1.83;72.74
65396;HTU21D;52004;45.136;39.010;2023-02-04T03:58:08;1.80;72.79
65396;HTU21D;52004;45.136;39.010;2023-02-04T04:00:34;1.79;72.80
65396;HTU21D;52004;45.136;39.010;2023-02-04T04:03:00;1.77;72.80
65396;HTU21D;52004;45.136;39.010;2023-02-04T04:05:26;1.75;72.74
65396;HTU21D;52004;45.136;39.010;2023-02-04T04:07:53;1.72;72.70
65396;HTU21D;52004;45.136;39.010;2023-02-04T04:10:18;1.71;72.68
65396;HTU21D;52004;45.136;39.010;2023-02-04T04:12:44;1.69;72.60
65396;HTU21D;52004;45.136;39.010;2023-02-04T04:15:10;1.68;72.54
65396;HTU21D;52004;45.136;39.010;2023-02-04T04:17:36;1.66;72.57
65396;HTU21D;52004;45.136;39.010;2023-02-04T04:20:02;1.62;72.60
65396;HTU21D;52004;45.136;39.010;2023-02-04T04:22:29;1.56;72.67
65396;HTU21D;52004;45.136;39.010;2023-02-04T04:24:55;1.49;72.87
65396;HTU21D;52004;45.136;39.010;2023-02-04T04:27:21;1.47;72.99
65396;HTU21D;52004;45.136;39.010;2023-02-04T04:29:47;1.46;73.09
65396;HTU21D;52004;45.136;39.010;2023-02-04T04:32:13;1.47;73.15
65396;HTU21D;52004;45.136;39.010;2023-02-04T04:34:39;1.48;73.16
65396;HTU21D;52004;45.136;39.010;2023-02-04T04:37:05;0.00;73.08
65396;HTU21D;52004;45.136;39.010;2023-02-04T04:39:30;1.53;72.96
65396;HTU21D;52004;45.136;39.010;2023-02-04T04:41:56;1.57;72.88
65396;HTU21D;52004;45.136;39.010;2023-02-04T04:44:22;1.61;72.79
65396;HTU21D;52004;45.136;39.010;2023-02-04T04:46:48;1.61;72.74
65396;HTU21D;52004;45.136;39.010;2023-02-04T04:49:14;1.61;72.75
65396;HTU21D;52004;45.136;39.010;2023-02-04T04:51:40;1.60;72.80
65396;HTU21D;52004;45.136;39.010;2023-02-04T04:54:31;1.61;72.89
65396;HTU21D;52004;45.136;39.010;2023-02-04T04:56:56;1.64;72.89
65396;HTU21D;52004;45.136;39.010;2023-02-04T04:59:22;1.66;72.95
65396;HTU21D;52004;45.136;39.010;2023-02-04T05:01:48;1.70;72.97
65396;HTU21D;52004;45.136;39.010;2023-02-04T05:04:14;1.73;72.96
65396;HTU21D;52004;45.136;39.010;2023-02-04T05:06:40;1.78;72.98
65396;HTU21D;52004;45.136;39.010;2023-02-04T05:09:06;1.83;72.99
65396;HTU21D;52004;45.136;39.010;2023-02-04T05:11:34;1.87;72.96
65396;HTU21D;52004;45.136;39.010;2023-02-04T05:14:00;1.93;72.94
65396;HTU21D;52004;45.136;39.010;2023-02-04T05:16:26;1.98;72.92
65396;HTU21D;52004;45.136;39.010;2023-02-04T05:18:52;2.05;72.92
65396;HTU21D;52004;45.136;39.010;2023-02-04T05:21:18;2.09;72.87
65396;HTU21D;52004;45.136;39.010;2023-02-04T05:23:44;2.11;72.83
65396;HTU21D;52004;45.136;39.010;2023-02-04T05:26:10;2.14;72.88
65396;HTU21D;52004;45.136;39.010;2023-02-04T05:28:36;2.19;72.95
65396;HTU21D;52004;45.136;39.010;2023-02-04T05:31:01;2.22;72.91
65396;HTU21D;52004;45.136;39.010;2023-02-04T05:33:27;2.26;72.96
65396;HTU21D;52004;45.136;39.010;2023-02-04T05:35:53;2.30;72.95
65396;HTU21D;52004;45.136;39.010;2023-02-04T05:38:19;2.35;72.96
65396;HTU21D;52004;45.136;39.010;2023-02-04T05:40:45;2.40;72.99
65396;HTU21D;52004;45.136;39.010;2023-02-04T05:43:11;2.43;72.99
65396;HTU21D;52004;45.136;39.010;2023-02-04T05:45:37;2.46;73.01
65396;HTU21D;52004;45.136;39.010;2023-02-04T05:48:02;2.53;73.03
65396;HTU21D;52004;45.136;39.010;2023-02-04T05:50:28;2.58;73.00
65396;HTU21D;52004;45.136;39.010;2023-02-04T05:53:07;2.60;72.94
65396;HTU21D;52004;45.136;39.010;2023-02-04T05:55:33;0.00;72.96
65396;HTU21D;52004;45.136;39.010;2023-02-04T05:57:59;2.68;73.01
65396;HTU21D;52004;45.136;39.010;2023-02-04T06:00:24;2.72;73.04
65396;HTU21D;52004;45.136;39.010;2023-02-04T06:02:50;2.78;73.03
65396;HTU21D;52004;45.136;39.010;2023-02-04T06:05:16;2.83;73.02
65396;HTU21D;52004;45.136;39.010;2023-02-04T06:07:42;2.88;73.02
65396;HTU21D;52004;45.136;39.010;2023-02-04T06:10:08;2.94;73.03
65396;HTU21D;52004;45.136;39.010;2023-02-04T06:12:35;2.98;73.03
65396;HTU21D;52004;45.136;39.010;2023-02-04T06:15:01;3.02;73.02
65396;HTU21D;52004;45.136;39.010;2023-02-04T06:17:27;3.08;73.10
65396;HTU21D;52004;45.136;39.010;2023-02-04T06:19:53;3.14;73.19
65396;HTU21D;52004;45.136;39.010;2023-02-04T06:22:19;3.24;73.22
65396;HTU21D;52004;45.136;39.010;2023-02-04T06:24:45;3.34;73.27
65396;HTU21D;52004;45.136;39.010;2023-02-04T06:27:10;3.43;73.24
65396;HTU21D;52004;45.136;39.010;2023-02-04T06:29:36;3.52;73.21
65396;HTU21D;52004;45.136;39.010;2023-02-04T06:32:02;3.59;73.12
65396;HTU21D;52004;45.136;39.010;2023-02-04T06:34:53;0.00;73.02
65396;HTU21D;52004;45.136;39.010;2023-02-04T06:37:19;3.68;72.91
65396;HTU21D;52004;45.136;39.010;2023-02-04T06:39:45;3.71;72.80
65396;HTU21D;52004;45.136;39.010;2023-02-04T06:42:11;3.68;72.70
65396;HTU21D;52004;45.136;39.010;2023-02-04T06:44:36;0.00;72.73
65396;HTU21D;52004;45.136;39.010;2023-02-04T06:47:02;3.61;72.77
65396;HTU21D;52004;45.136;39.010;2023-02-04T06:49:28;3.58;72.81
65396;HTU21D;52004;45.136;39.010;2023-02-04T06:51:54;3.54;72.87
65396;HTU21D;52004;45.136;39.010;2023-02-04T06:54:20;3.47;72.93
65396;HTU21D;52004;45.136;39.010;2023-02-04T06:56:46;3.46;73.03
65396;HTU21D;52004;45.136;39.010;2023-02-04T06:59:12;3.45;73.00
65396;HTU21D;52004;45.136;39.010;2023-02-04T07:01:38;3.42;73.05
65396;HTU21D;52004;45.136;39.010;2023-02-04T07:04:04;3.40;73.08
65396;HTU21D;52004;45.136;39.010;2023-02-04T07:06:30;0.00;73.12
65396;HTU21D;52004;45.136;39.010;2023-02-04T07:08:56;3.39;73.16
65396;HTU21D;52004;45.136;39.010;2023-02-04T07:11:22;3.40;73.19
65396;HTU21D;52004;45.136;39.010;2023-02-04T07:13:48;3.40;73.19
65396;HTU21D;52004;45.136;39.010;2023-02-04T07:16:13;3.41;73.16
65396;HTU21D;52004;45.136;39.010;2023-02-04T07:18:39;3.39;73.19
65396;HTU21D;52004;45.136;39.010;2023-02-04T07:21:05;3.33;73.24
65396;HTU21D;52004;45.136;39.010;2023-02-04T07:23:31;3.32;73.33
65396;HTU21D;52004;45.136;39.010;2023-02-04T07:25:57;3.33;73.33
65396;HTU21D;52004;45.136;39.010;2023-02-04T07:28:24;3.36;73.30
65396;HTU21D;52004;45.136;39.010;2023-02-04T07:30:50;3.36;73.32
65396;HTU21D;52004;45.136;39.010;2023-02-04T07:33:16;3.36;73.33
65396;HTU21D;52004;45.136;39.010;2023-02-04T07:35:42;3.38;73.43
65396;HTU21D;52004;45.136;39.010;2023-02-04T07:38:09;3.41;73.48
65396;HTU21D;52004;45.136;39.010;2023-02-04T07:40:35;3.46;73.47
65396;HTU21D;52004;45.136;39.010;2023-02-04T07:43:01;3.50;73.46
65396;HTU21D;52004;45.136;39.010;2023-02-04T07:45:27;3.55;73.47
65396;HTU21D;52004;45.136;39.010;2023-02-04T07:47:53;3.58;73.48
65396;HTU21D;52004;45.136;39.010;2023-02-04T07:50:19;3.61;73.49
65396;HTU21D;52004;45.136;39.010;2023-02-04T07:52:45;3.60;73.54
65396;HTU21D;52004;45.136;39.010;2023-02-04T07:55:11;3.60;73.61
65396;HTU21D;52004;45.136;39.010;2023-02-04T07:57:37;3.62;73.70
65396;HTU21D;52004;45.136;39.010;2023-02-04T08:00:03;3.65;73.73
65396;HTU21D;52004;45.136;39.010;2023-02-04T08:02:38;3.69;73.76
65396;HTU21D;52004;45.136;39.010;2023-02-04T08:05:04;3.71;73.77
65396;HTU21D;52004;45.136;39.010;2023-02-04T08:07:30;3.73;73.83
65396;HTU21D;52004;45.136;39.010;2023-02-04T08:09:56;3.78;73.94
65396;HTU21D;52004;45.136;39.010;2023-02-04T08:12:22;3.85;74.02
65396;HTU21D;52004;45.136;39.010;2023-02-04T08:14:48;3.95;74.12
65396;HTU21D;52004;45.136;39.010;2023-02-04T08:17:13;4.05;74.18
65396;HTU21D;52004;45.136;39.010;2023-02-04T08:19:40;4.16;74.07
65396;HTU21D;52004;45.136;39.010;2023-02-04T08:22:05;4.29;74.10
65396;HTU21D;52004;45.136;39.010;2023-02-04T08:24:31;4.43;74.07
65396;HTU21D;52004;45.136;39.010;2023-02-04T08:26:57;4.52;74.07
65396;HTU21D;52004;45.136;39.010;2023-02-04T08:29:23;4.62;73.98
65396;HTU21D;52004;45.136;39.010;2023-02-04T08:31:52;4.68;73.86
65396;HTU21D;52004;45.136;39.010;2023-02-04T08:34:18;4.75;73.76
65396;HTU21D;52004;45.136;39.010;2023-02-04T08:36:44;4.76;73.57
65396;HTU21D;52004;45.136;39.010;2023-02-04T08:39:10;4.77;73.55
65396;HTU21D;52004;45.136;39.010;2023-02-04T08:41:37;4.78;73.55
65396;HTU21D;52004;45.136;39.010;2023-02-04T08:44:03;4.80;73.52
65396;HTU21D;52004;45.136;39.010;2023-02-04T08:46:29;4.82;73.52
65396;HTU21D;52004;45.136;39.010;2023-02-04T08:48:55;4.88;73.56
65396;HTU21D;52004;45.136;39.010;2023-02-04T08:51:20;4.91;73.54
65396;HTU21D;52004;45.136;39.010;2023-02-04T08:53:47;4.97;73.57
65396;HTU21D;52004;45.136;39.010;2023-02-04T08:56:12;5.04;73.54
65396;HTU21D;52004;45.136;39.010;2023-02-04T08:58:43;5.10;73.44
65396;HTU21D;52004;45.136;39.010;2023-02-04T09:01:09;5.11;73.32
65396;HTU21D;52004;45.136;39.010;2023-02-04T09:03:38;5.09;73.23
65396;HTU21D;52004;45.136;39.010;2023-02-04T09:06:05;5.10;73.38
65396;HTU21D;52004;45.136;39.010;2023-02-04T09:08:31;5.16;73.43
65396;HTU21D;52004;45.136;39.010;2023-02-04T09:10:57;5.22;73.51
65396;HTU21D;52004;45.136;39.010;2023-02-04T09:13:22;5.28;73.41
65396;HTU21D;52004;45.136;39.010;2023-02-04T09:15:48;5.33;73.39
65396;HTU21D;52004;45.136;39.010;2023-02-04T09:18:14;5.43;74.25
65396;HTU21D;52004;45.136;39.010;2023-02-04T09:20:47;5.60;74.67
65396;HTU21D;52004;45.136;39.010;2023-02-04T09:23:13;5.70;74.34
65396;HTU21D;52004;45.136;39.010;2023-02-04T09:25:39;5.71;73.85
65396;HTU21D;52004;45.136;39.010;2023-02-04T09:28:06;5.69;73.51
65396;HTU21D;52004;45.136;39.010;2023-02-04T09:30:34;5.61;73.22
65396;HTU21D;52004;45.136;39.010;2023-02-04T09:33:00;5.50;73.23
65396;HTU21D;52004;45.136;39.010;2023-02-04T09:35:26;5.43;73.31
65396;HTU21D;52004;45.136;39.010;2023-02-04T09:37:52;5.34;73.35
65396;HTU21D;52004;45.136;39.010;2023-02-04T09:40:18;5.26;73.51
65396;HTU21D;52004;45.136;39.010;2023-02-04T09:42:46;5.25;73.72
65396;HTU21D;52004;45.136;39.010;2023-02-04T09:45:18;5.28;74.11
65396;HTU21D;52004;45.136;39.010;2023-02-04T09:47:46;5.36;73.92
65396;HTU21D;52004;45.136;39.010;2023-02-04T09:50:13;5.40;73.83
65396;HTU21D;52004;45.136;39.010;2023-02-04T09:52:39;5.51;73.73
65396;HTU21D;52004;45.136;39.010;2023-02-04T09:55:11;5.61;73.86
65396;HTU21D;52004;45.136;39.010;2023-02-04T09:57:38;5.77;74.15
65396;HTU21D;52004;45.136;39.010;2023-02-04T10:00:15;5.84;73.94
65396;HTU21D;52004;45.136;39.010;2023-02-04T10:02:41;5.91;73.65
65396;HTU21D;52004;45.136;39.010;2023-02-04T10:05:14;5.92;73.42
65396;HTU21D;52004;45.136;39.010;2023-02-04T10:07:41;5.98;73.44
65396;HTU21D;52004;45.136;39.010;2023-02-04T10:10:18;6.06;73.59
65396;HTU21D;52004;45.136;39.010;2023-02-04T10:12:44;6.07;73.28
65396;HTU21D;52004;45.136;39.010;2023-02-04T10:15:14;6.05;73.23
65396;HTU21D;52004;45.136;39.010;2023-02-04T10:17:41;6.06;73.15
65396;HTU21D;52004;45.136;39.010;2023-02-04T10:20:28;5.99;73.02
65396;HTU21D;52004;45.136;39.010;2023-02-04T10:22:53;5.93;72.97
65396;HTU21D;52004;45.136;39.010;2023-02-04T10:25:22;5.83;72.92
65396;HTU21D;52004;45.136;39.010;2023-02-04T10:30:20;5.75;73.16
65396;HTU21D;52004;45.136;39.010;2023-02-04T10:32:47;5.74;73.12
65396;HTU21D;52004;45.136;39.010;2023-02-04T10:35:14;5.79;73.12
65396;HTU21D;52004;45.136;39.010;2023-02-04T10:37:40;5.84;73.19
65396;HTU21D;52004;45.136;39.010;2023-02-04T10:40:24;5.98;73.70
65396;HTU21D;52004;45.136;39.010;2023-02-04T10:42:50;6.23;74.85
65396;HTU21D;52004;45.136;39.010;2023-02-04T10:45:24;6.55;76.37
65396;HTU21D;52004;45.136;39.010;2023-02-04T10:47:50;6.83;76.32
65396;HTU21D;52004;45.136;39.010;2023-02-04T10:50:18;7.16;77.88
65396;HTU21D;52004;45.136;39.010;2023-02-04T10:52:45;7.70;80.02
65396;HTU21D;52004;45.136;39.010;2023-02-04T10:55:13;8.13;78.41
65396;HTU21D;52004;45.136;39.010;2023-02-04T10:57:40;8.20;76.24
65396;HTU21D;52004;45.136;39.010;2023-02-04T11:00:13;8.12;75.23
65396;HTU21D;52004;45.136;39.010;2023-02-04T11:02:44;8.02;74.34
65396;HTU21D;52004;45.136;39.010;2023-02-04T11:05:16;7.97;75.15
65396;HTU21D;52004;45.136;39.010;2023-02-04T11:07:43;8.11;75.87
65396;HTU21D;52004;45.136;39.010;2023-02-04T11:10:13;8.24;75.66
65396;HTU21D;52004;45.136;39.010;2023-02-04T11:12:44;8.45;76.70
65396;HTU21D;52004;45.136;39.010;2023-02-04T11:18:03;9.02;75.60
65396;HTU21D;52004;45.136;39.010;2023-02-04T11:20:31;8.97;74.12
65396;HTU21D;52004;45.136;39.010;2023-02-04T11:22:57;8.81;73.55
65396;HTU21D;52004;45.136;39.010;2023-02-04T11:25:38;8.77;74.10
65396;HTU21D;52004;45.136;39.010;2023-02-04T11:28:14;8.83;73.85
65396;HTU21D;52004;45.136;39.010;2023-02-04T11:30:41;8.87;73.55
65396;HTU21D;52004;45.136;39.010;2023-02-04T11:33:36;8.87;73.44
65396;HTU21D;52004;45.136;39.010;2023-02-04T11:35:59;8.73;72.64
65396;HTU21D;52004;45.136;39.010;2023-02-04T11:38:25;8.55;72.03
65396;HTU21D;52004;45.136;39.010;2023-02-04T11:40:55;8.32;71.46
65396;HTU21D;52004;45.136;39.010;2023-02-04T11:43:22;8.03;71.50
65396;HTU21D;52004;45.136;39.010;2023-02-04T11:45:48;7.88;71.76
65396;HTU21D;52004;45.136;39.010;2023-02-04T11:48:24;7.74;71.77
65396;HTU21D;52004;45.136;39.010;2023-02-04T11:50:56;7.59;71.78
65396;HTU21D;52004;45.136;39.010;2023-02-04T11:53:24;7.39;71.73
65396;HTU21D;52004;45.136;39.010;2023-02-04T11:55:52;7.30;71.84
65396;HTU21D;52004;45.136;39.010;2023-02-04T11:58:19;7.28;71.94
65396;HTU21D;52004;45.136;39.010;2023-02-04T12:00:45;7.29;72.00
65396;HTU21D;52004;45.136;39.010;2023-02-04T12:03:24;7.42;72.22
65396;HTU21D;52004;45.136;39.010;2023-02-04T12:05:51;7.57;72.01
65396;HTU21D;52004;45.136;39.010;2023-02-04T12:10:49;7.87;72.02
65396;HTU21D;52004;45.136;39.010;2023-02-04T12:13:17;8.09;72.22
65396;HTU21D;52004;45.136;39.010;2023-02-04T12:15:50;8.35;71.95
65396;HTU21D;52004;45.136;39.010;2023-02-04T12:18:17;8.42;71.35
65396;HTU21D;52004;45.136;39.010;2023-02-04T12:20:42;8.41;71.11
65396;HTU21D;52004;45.136;39.010;2023-02-04T12:23:08;8.38;71.19
65396;HTU21D;52004;45.136;39.010;2023-02-04T12:25:34;8.41;71.32
65396;HTU21D;52004;45.136;39.010;2023-02-04T12:28:00;8.45;71.41
65396;HTU21D;52004;45.136;39.010;2023-02-04T12:30:26;8.50;71.20
65396;HTU21D;52004;45.136;39.010;2023-02-04T12:32:52;8.47;71.06
65396;HTU21D;52004;45.136;39.010;2023-02-04T12:35:18;8.45;71.16
65396;HTU21D;52004;45.136;39.010;2023-02-04T12:37:44;8.44;71.14
65396;HTU21D;52004;45.136;39.010;2023-02-04T12:40:14;8.34;70.83
65396;HTU21D;52004;45.136;39.010;2023-02-04T12:42:41;8.17;70.77
65396;HTU21D;52004;45.136;39.010;2023-02-04T12:45:07;7.99;70.74
65396;HTU21D;52004;45.136;39.010;2023-02-04T12:47:33;7.88;70.83
65396;HTU21D;52004;45.136;39.010;2023-02-04T12:49:59;7.75;70.88
65396;HTU21D;52004;45.136;39.010;2023-02-04T12:52:25;7.68;70.99
65396;HTU21D;52004;45.136;39.010;2023-02-04T12:54:51;7.63;70.96
65396;HTU21D;52004;45.136;39.010;2023-02-04T12:57:17;7.63;70.90
65396;HTU21D;52004;45.136;39.010;2023-02-04T12:59:45;7.62;70.97
65396;HTU21D;52004;45.136;39.010;2023-02-04T13:02:11;7.58;70.99
65396;HTU21D;52004;45.136;39.010;2023-02-04T13:04:37;7.62;71.10
65396;HTU21D;52004;45.136;39.010;2023-02-04T13:07:03;7.78;71.29
65396;HTU21D;52004;45.136;39.010;2023-02-04T13:09:31;8.02;71.49
65396;HTU21D;52004;45.136;39.010;2023-02-04T13:11:57;8.19;71.45
65396;HTU21D;52004;45.136;39.010;2023-02-04T13:14:23;8.37;71.61
65396;HTU21D;52004;45.136;39.010;2023-02-04T13:17:14;8.52;71.62
65396;HTU21D;52004;45.136;39.010;2023-02-04T13:19:40;8.56;71.43
65396;HTU21D;52004;45.136;39.010;2023-02-04T13:22:06;8.53;71.53
65396;HTU21D;52004;45.136;39.010;2023-02-04T13:24:32;8.52;71.53
65396;HTU21D;52004;45.136;39.010;2023-02-04T13:26:58;8.50;71.57
65396;HTU21D;52004;45.136;39.010;2023-02-04T13:29:24;8.45;71.56
65396;HTU21D;52004;45.136;39.010;2023-02-04T13:31:50;8.28;71.13
65396;HTU21D;52004;45.136;39.010;2023-02-04T13:34:16;8.02;70.89
65396;HTU21D;52004;45.136;39.010;2023-02-04T13:36:42;7.73;70.71
65396;HTU21D;52004;45.136;39.010;2023-02-04T13:39:08;7.44;70.77
65396;HTU21D;52004;45.136;39.010;2023-02-04T13:41:34;7.20;70.78
65396;HTU21D;52004;45.136;39.010;2023-02-04T13:44:01;6.97;70.85
65396;HTU21D;52004;45.136;39.010;2023-02-04T13:46:26;6.79;70.87
65396;HTU21D;52004;45.136;39.010;2023-02-04T13:48:52;6.57;70.93
65396;HTU21D;52004;45.136;39.010;2023-02-04T13:51:18;6.46;71.07
65396;HTU21D;52004;45.136;39.010;2023-02-04T13:53:44;6.45;71.21
65396;HTU21D;52004;45.136;39.010;2023-02-04T13:56:10;6.48;71.22
65396;HTU21D;52004;45.136;39.010;2023-02-04T13:58:36;6.46;71.01
65396;HTU21D;52004;45.136;39.010;2023-02-04T14:01:02;6.38;70.88
65396;HTU21D;52004;45.136;39.010;2023-02-04T14:03:28;6.33;70.77
65396;HTU21D;52004;45.136;39.010;2023-02-04T14:05:54;6.24;70.68
65396;HTU21D;52004;45.136;39.010;2023-02-04T14:08:21;6.16;70.64
65396;HTU21D;52004;45.136;39.010;2023-02-04T14:10:48;6.04;70.68
65396;HTU21D;52004;45.136;39.010;2023-02-04T14:13:14;5.92;70.85
65396;HTU21D;52004;45.136;39.010;2023-02-04T14:15:40;5.85;70.83
65396;HTU21D;52004;45.136;39.010;2023-02-04T14:18:08;5.81;70.80
65396;HTU21D;52004;45.136;39.010;2023-02-04T14:20:34;5.77;70.71
65396;HTU21D;52004;45.136;39.010;2023-02-04T14:23:00;5.71;70.66
65396;HTU21D;52004;45.136;39.010;2023-02-04T14:25:27;5.68;70.57
65396;HTU21D;52004;45.136;39.010;2023-02-04T14:27:52;5.65;70.52
65396;HTU21D;52004;45.136;39.010;2023-02-04T14:30:24;5.61;70.49
65396;HTU21D;52004;45.136;39.010;2023-02-04T14:32:50;5.56;70.47
65396;HTU21D;52004;45.136;39.010;2023-02-04T14:35:16;5.54;70.45
65396;HTU21D;52004;45.136;39.010;2023-02-04T14:37:42;0.00;70.41
65396;HTU21D;52004;45.136;39.010;2023-02-04T14:40:09;5.46;70.39
65396;HTU21D;52004;45.136;39.010;2023-02-04T14:42:35;5.42;70.41
65396;HTU21D;52004;45.136;39.010;2023-02-04T14:45:06;5.38;70.42
65396;HTU21D;52004;45.136;39.010;2023-02-04T14:47:33;5.32;70.45
65396;HTU21D;52004;45.136;39.010;2023-02-04T14:49:59;5.27;70.49
65396;HTU21D;52004;45.136;39.010;2023-02-04T14:52:25;5.24;70.56
65396;HTU21D;52004;45.136;39.010;2023-02-04T14:54:50;5.22;70.55
65396;HTU21D;52004;45.136;39.010;2023-02-04T14:57:16;5.20;70.58
65396;HTU21D;52004;45.136;39.010;2023-02-04T14:59:42;5.17;70.61
65396;HTU21D;52004;45.136;39.010;2023-02-04T15:02:08;5.17;70.61
65396;HTU21D;52004;45.136;39.010;2023-02-04T15:04:35;5.13;70.59
65396;HTU21D;52004;45.136;39.010;2023-02-04T15:07:01;5.11;70.62
65396;HTU21D;52004;45.136;39.010;2023-02-04T15:09:27;5.10;70.64
65396;HTU21D;52004;45.136;39.010;2023-02-04T15:11:53;5.08;70.66
65396;HTU21D;52004;45.136;39.010;2023-02-04T15:14:19;5.08;70.69
65396;HTU21D;52004;45.136;39.010;2023-02-04T15:16:44;5.03;70.76
65396;HTU21D;52004;45.136;39.010;2023-02-04T15:19:13;4.98;70.80
65396;HTU21D;52004;45.136;39.010;2023-02-04T15:21:39;4.95;70.83